Data for 08/20/2009

Time Sea-Level Adjusted Pressure Absolute Pressure Temperature Relative Humidity Dew Point   
(mb) (inHg) (mb) (inHg) (C) (F) (%) (C) (F)
00:05 1022 30.18 851 25.13 16.3 61.4 55 7.4 45.3
00:10 1022 30.18 851 25.13 16.3 61.3 55 7.3 45.2
00:15 1022 30.18 851 25.13 16.2 61.1 55 7.3 45.2
00:20 1022 30.18 851 25.13 16.1 60.9 55 7.2 45
00:25 1022 30.18 851 25.13 16 60.8 56 7.3 45.1
00:30 1022 30.18 851 25.13 15.9 60.6 56 7.3 45.1
00:35 1022 30.18 851 25.13 15.9 60.5 56 7.3 45.1
00:40 1022 30.18 851 25.13 15.8 60.4 56 7.2 45
00:45 1022 30.18 851 25.13 15.8 60.4 57 7.3 45.1
00:50 1022 30.18 851 25.13 15.7 60.3 57 7.3 45.1
00:55 1022 30.18 851 25.13 15.7 60.3 56 7.2 44.9
01:00 1022 30.18 851 25.13 15.8 60.4 56 7.2 45
01:05 1022 30.18 851 25.13 15.7 60.3 57 7.3 45.1
01:10 1022 30.18 851 25.13 15.6 60 58 7.4 45.3
01:15 1022 30.18 851 25.13 15.4 59.7 58 7.2 45
01:20 1022 30.18 851 25.13 15.4 59.7 58 7.3 45.1
01:25 1022 30.18 851 25.13 15.3 59.5 59 7.3 45.2
01:30 1022 30.18 851 25.13 15.3 59.5 59 7.3 45.1
01:35 1022 30.18 851 25.13 15.2 59.3 59 7.3 45.2
01:40 1022 30.18 851 25.13 15.1 59.1 59 7.2 45
01:45 1022 30.18 851 25.13 15 58.9 60 7.3 45.1
01:50 1022 30.18 851 25.13 14.9 58.7 60 7.2 45
01:55 1022 30.18 851 25.13 14.8 58.6 60 7.2 45
02:00 1022 30.18 851 25.13 14.8 58.6 60 7.2 45
02:05 1022 30.18 851 25.13 14.8 58.6 60 7.2 44.9
02:10 1022 30.18 851 25.13 14.7 58.4 60 7.2 44.9
02:15 1022 30.18 851 25.13 14.6 58.2 61 7.2 45
02:20 1022 30.18 851 25.13 14.5 58.2 61 7.1 44.8
02:25 1022 30.18 851 25.13 14.5 58 61 7.1 44.8
02:30 1022 30.18 851 25.13 14.4 58 61 7.1 44.8
02:35 1022 30.18 851 25.13 14.4 58 61 7 44.6
02:40 1022 30.18 851 25.13 14.4 57.9 61 7 44.6
02:45 1022 30.18 851 25.13 14.4 57.9 61 7 44.6
02:50 1022 30.18 851 25.13 14.4 57.8 61 6.9 44.4
02:55 1022 30.18 851 25.13 14.4 57.9 60 6.9 44.3
03:00 1022 30.18 851 25.13 14.3 57.8 61 6.9 44.4
03:05 1022 30.18 851 25.13 14.2 57.6 61 6.9 44.4
03:10 1022 30.18 852 25.16 14.1 57.5 61 6.8 44.2
03:15 1022 30.18 852 25.16 14.1 57.5 61 6.7 44.1
03:20 1022 30.18 852 25.16 14.2 57.5 61 6.8 44.3
03:25 1022 30.18 852 25.16 14.2 57.5 60 6.6 43.9
03:30 1022 30.18 852 25.16 14.3 57.7 60 6.7 44.1
03:35 1022 30.18 852 25.16 14.2 57.5 61 6.8 44.2
03:40 1022 30.18 852 25.16 14.1 57.3 61 6.8 44.2
03:45 1022 30.18 852 25.16 14 57.1 62 6.8 44.3
03:50 1022 30.18 852 25.16 13.8 56.8 64 7.1 44.8
03:55 1022 30.18 852 25.16 13.3 55.9 66 7.1 44.7
04:00 1022 30.18 852 25.16 13.1 55.5 66 7 44.6
04:05 1023 30.21 852 25.16 12.9 55.2 68 7.2 44.9
04:10 1023 30.21 852 25.16 12.6 54.7 69 7 44.7
04:15 1023 30.21 852 25.16 12.5 54.4 69 7 44.6
04:20 1023 30.21 852 25.16 12.5 54.5 68 6.9 44.4
04:25 1023 30.21 852 25.16 12.5 54.5 69 6.9 44.4
04:30 1023 30.21 852 25.16 12.5 54.5 69 6.9 44.4
04:35 1022 30.18 852 25.16 12.4 54.3 69 7 44.5
04:40 1022 30.18 852 25.16 12.3 54.1 70 6.9 44.4
04:45 1022 30.18 852 25.16 12.2 54 70 6.9 44.3
04:50 1022 30.18 852 25.16 12.2 53.9 70 6.9 44.4
04:55 1022 30.18 852 25.16 12.1 53.8 70 6.9 44.3
05:00 1023 30.21 852 25.16 12.2 54 70 6.9 44.4
05:05 1023 30.21 852 25.16 12.2 54 69 6.8 44.2
05:10 1023 30.21 852 25.16 12.4 54.3 68 6.8 44.3
05:15 1023 30.21 852 25.16 12.5 54.5 68 6.9 44.4
05:20 1023 30.21 852 25.16 12.4 54.4 69 7 44.5
05:25 1023 30.21 852 25.16 12.3 54.2 69 6.9 44.4
05:30 1023 30.21 852 25.16 12.3 54.1 69 6.8 44.3
05:35 1023 30.21 852 25.16 12.3 54.1 69 6.7 44.1
05:40 1023 30.21 852 25.16 12.3 54.1 69 6.9 44.3
05:45 1023 30.21 852 25.16 12.2 53.9 70 6.8 44.3
05:50 1023 30.21 852 25.16 12.1 53.7 70 6.8 44.3
05:55 1023 30.21 852 25.16 12 53.6 70 6.8 44.2
06:00 1023 30.21 852 25.16 12 53.6 70 6.7 44
06:05 1023 30.21 852 25.16 12 53.7 70 6.7 44
06:10 1023 30.21 852 25.16 12 53.6 70 6.8 44.2
06:15 1023 30.21 852 25.16 11.9 53.4 70 6.7 44.1
06:20 1023 30.21 852 25.16 12 53.6 69 6.6 43.8
06:25 1023 30.21 852 25.16 12.2 53.9 69 6.7 44.1
06:30 1023 30.21 852 25.16 12 53.7 71 6.9 44.4
06:35 1023 30.21 852 25.16 11.8 53.2 71 6.8 44.2
06:40 1023 30.21 852 25.16 11.7 53.1 72 6.8 44.2
06:45 1023 30.21 852 25.16 11.5 52.7 73 6.8 44.3
06:50 1023 30.21 852 25.16 11.5 52.6 72 6.6 43.9
06:55 1023 30.21 852 25.16 11.8 53.2 71 6.7 44
07:00 1023 30.21 852 25.16 11.8 53.3 71 6.7 44.1
07:05 1023 30.21 852 25.16 12.1 53.8 69 6.6 43.8
07:10 1023 30.21 852 25.16 12.6 54.7 67 6.8 44.2
07:15 1023 30.21 852 25.16 12.8 55.1 66 6.7 44.1
07:20 1023 30.21 852 25.16 13.3 55.9 65 6.8 44.3
07:25 1023 30.21 852 25.16 13.6 56.6 63 6.9 44.4
07:30 1023 30.21 852 25.16 14.2 57.5 61 6.9 44.4
07:35 1023 30.21 852 25.16 14.4 57.9 62 7.2 44.9
07:40 1023 30.21 853 25.19 14.4 57.9 62 7.2 44.9
07:45 1023 30.21 853 25.19 14.6 58.2 60 7.1 44.7
07:50 1023 30.21 853 25.19 14.4 57.8 62 7.2 44.9
07:55 1023 30.21 853 25.19 14.3 57.8 62 7.2 44.9
08:00 1023 30.21 853 25.19 14.2 57.5 64 7.5 45.5
08:05 1023 30.21 853 25.19 14 57.3 64 7.5 45.5
08:10 1023 30.21 852 25.16 14.2 57.6 63 7.4 45.4
08:15 1023 30.21 852 25.16 14.4 57.9 63 7.5 45.6
08:20 1023 30.21 852 25.16 14.8 58.7 61 7.4 45.2
08:25 1023 30.21 852 25.16 15.2 59.4 60 7.5 45.5
08:30 1023 30.21 853 25.19 15.7 60.2 59 7.7 45.8
08:35 1023 30.21 853 25.19 16 60.8 58 7.7 45.9
08:40 1023 30.21 852 25.16 16.1 61 57 7.8 46
08:45 1023 30.21 852 25.16 15.9 60.6 60 8.1 46.7
08:50 1023 30.21 853 25.19 16 60.8 58 7.9 46.2
08:55 1023 30.21 853 25.19 16.3 61.4 59 8.4 47.2
09:00 1023 30.21 853 25.19 16.2 61.2 59 8.3 46.9
09:05 1023 30.21 853 25.19 16.5 61.7 59 8.5 47.3
09:10 1023 30.21 853 25.19 17.2 62.9 60 9.4 48.8
09:15 1023 30.21 853 25.19 17.6 63.6 58 9.2 48.5
09:20 1023 30.21 853 25.19 18 64.5 55 9 48.2
09:25 1023 30.21 853 25.19 18.4 65.1 52 8.5 47.4
09:30 1023 30.21 853 25.19 18.6 65.5 52 8.6 47.6
09:35 1023 30.21 853 25.19 18.6 65.5 51 8.5 47.2
09:40 1023 30.21 853 25.19 18.9 66 50 8.3 47
09:45 1024 30.24 853 25.19 18.8 65.8 50 8.2 46.8
09:50 1024 30.24 853 25.19 19.3 66.7 49 8.4 47.1
09:55 1024 30.24 853 25.19 20.1 68.2 45 8 46.4
10:00 1023 30.21 853 25.19 19.5 67.1 51 9.1 48.3
10:05 1023 30.21 853 25.19 19.7 67.4 46 7.9 46.2
10:10 1023 30.21 853 25.19 19.6 67.2 48 8.4 47.1
10:15 1023 30.21 853 25.19 19.4 67 48 8.3 46.9
10:20 1023 30.21 853 25.19 20.2 68.4 45 8 46.4
10:25 1023 30.21 853 25.19 20.8 69.4 45 8.7 47.6
10:30 1023 30.21 853 25.19 20.7 69.2 46 8.9 48.1
10:35 1023 30.21 853 25.19 20.1 68.1 48 9 48.2
10:40 1023 30.21 853 25.19 20.1 68.3 49 9.3 48.7
10:45 1023 30.21 852 25.16 20.7 69.2 45 8.6 47.4
10:50 1023 30.21 852 25.16 21.8 71.3 41 8.1 46.6
10:55 1023 30.21 852 25.16 22.2 71.9 41 8.6 47.5
11:00 1023 30.21 852 25.16 22.1 71.8 42 8.9 48
11:05 1023 30.21 852 25.16 22.4 72.3 43 9.4 49
11:10 1023 30.21 852 25.16 22.5 72.5 41 8.8 47.8
11:15 1023 30.21 852 25.16 23.1 73.6 40 9.1 48.4
11:20 1023 30.21 852 25.16 23.3 73.9 41 9.3 48.8
11:25 1023 30.21 852 25.16 22.9 73.3 40 8.7 47.6
11:30 1023 30.21 852 25.16 23.3 73.9 41 9.4 48.9
11:35 1023 30.21 852 25.16 23.4 74 39 8.7 47.7
11:40 1023 30.21 852 25.16 23.5 74.4 39 9 48.2
11:45 1023 30.21 852 25.16 23.3 74 40 9.2 48.6
11:50 1023 30.21 852 25.16 22.3 72.1 42 8.9 48
11:55 1023 30.21 852 25.16 22.1 71.7 39 7.8 46.1
12:00 1023 30.21 852 25.16 22.1 71.7 39 7.8 46
12:05 1023 30.21 852 25.16 22.5 72.4 39 8.2 46.7
12:10 1023 30.21 852 25.16 23.4 74.1 37 8.1 46.6
12:15 1023 30.21 852 25.16 23 73.4 36 7.3 45.2
12:20 1023 30.21 852 25.16 24.4 76 34 7.9 46.2
12:25 1023 30.21 852 25.16 23.7 74.7 38 8.6 47.5
12:30 1023 30.21 852 25.16 24 75.2 35 7.8 46.1
12:35 1023 30.21 852 25.16 24.6 76.3 33 7.5 45.5
12:40 1023 30.21 852 25.16 24.7 76.4 35 8.6 47.5
12:45 1023 30.21 852 25.16 25 77.1 33 8 46.4
12:50 1023 30.21 852 25.16 25.2 77.3 33 7.8 46
12:55 1023 30.21 852 25.16 23.9 75 31 6.1 43
13:00 1023 30.21 852 25.16 25 77 30 6.4 43.4
13:05 1023 30.21 852 25.16 25.9 78.6 28 6.3 43.3
13:10 1023 30.21 852 25.16 25.7 78.2 29 6.4 43.6
13:15 1022 30.18 852 25.16 26.1 79 29 6.9 44.4
13:20 1022 30.18 852 25.16 26.3 79.3 30 7.5 45.6
13:25 1022 30.18 852 25.16 25.2 77.4 28 5.8 42.5
13:30 1022 30.18 852 25.16 26.3 79.3 27 6.1 43
13:35 1022 30.18 852 25.16 26.8 80.3 27 6.4 43.5
13:40 1022 30.18 852 25.16 26.4 79.4 27 6.3 43.4
13:45 1022 30.18 852 25.16 26.8 80.2 26 5.7 42.3
13:50 1022 30.18 852 25.16 27.3 81.2 25 5.9 42.7
13:55 1022 30.18 851 25.13 27.6 81.6 25 5.9 42.6
14:00 1022 30.18 851 25.13 27.5 81.5 25 5.8 42.4
14:05 1022 30.18 851 25.13 26.8 80.2 26 5.7 42.3
14:10 1022 30.18 851 25.13 26.2 79.2 25 5.2 41.3
14:15 1022 30.18 851 25.13 26.7 80.1 25 5.4 41.7
14:20 1022 30.18 851 25.13 26.7 80.1 26 5.8 42.4
14:25 1022 30.18 851 25.13 26.4 79.6 26 5.6 42.1
14:30 1022 30.18 851 25.13 27.3 81.1 24 5.1 41.2
14:35 1022 30.18 851 25.13 28.1 82.6 24 5.8 42.4
14:40 1022 30.18 851 25.13 28.2 82.7 23 5.4 41.7
14:45 1022 30.18 851 25.13 28.1 82.5 22 4.9 40.8
14:50 1022 30.18 851 25.13 28.6 83.5 21 4.5 40.1
14:55 1022 30.18 851 25.13 28.6 83.4 20 4 39.2
15:00 1022 30.18 851 25.13 27.8 82 20 3 37.3
15:05 1022 30.18 851 25.13 26.6 80 23 4.2 39.5
15:10 1022 30.18 851 25.13 26.6 79.9 23 3.9 39
15:15 1022 30.18 851 25.13 26.4 79.5 22 3.4 38.1
15:20 1022 30.18 851 25.13 27.8 82.1 20 3.2 37.7
15:25 1022 30.18 851 25.13 28.5 83.2 19 3.3 37.9
15:30 1022 30.18 851 25.13 28.7 83.6 20 3.7 38.6
15:35 1022 30.18 851 25.13 28.2 82.8 21 4 39.1
15:40 1022 30.18 851 25.13 27.8 82 21 3.6 38.5
15:45 1022 30.18 851 25.13 28.2 82.7 21 4 39.3
15:50 1022 30.18 851 25.13 28.3 83 21 4.5 40.2
15:55 1022 30.18 851 25.13 28.3 83 21 3.9 39
16:00 1021 30.15 851 25.13 27.9 82.2 22 4.5 40
16:05 1021 30.15 851 25.13 27.3 81.1 22 3.8 38.8
16:10 1021 30.15 851 25.13 27.6 81.7 21 3.9 39.1
16:15 1021 30.15 851 25.13 27.9 82.2 22 4.8 40.6
16:20 1021 30.15 851 25.13 28.1 82.6 20 3.5 38.4
16:25 1021 30.15 851 25.13 28.9 84.1 20 4.1 39.3
16:30 1021 30.15 851 25.13 28.8 83.9 20 4 39.2
16:35 1021 30.15 850 25.1 27.4 81.4 23 4.6 40.2
16:40 1021 30.15 850 25.1 28.2 82.7 22 4.7 40.4
16:45 1021 30.15 850 25.1 28.6 83.4 22 4.8 40.7
16:50 1021 30.15 850 25.1 28.7 83.6 21 4.4 39.9
16:55 1021 30.15 850 25.1 29.1 84.3 21 5.1 41.3
17:00 1021 30.15 850 25.1 29 84.3 21 4.7 40.4
17:05 1021 30.15 850 25.1 28.4 83.1 23 5.8 42.4
17:10 1021 30.15 850 25.1 28.1 82.6 23 5.1 41.2
17:15 1021 30.15 850 25.1 28.6 83.6 22 4.9 40.8
17:20 1021 30.15 850 25.1 27.8 82 24 5.5 42
17:25 1021 30.15 850 25.1 27.4 81.3 23 4.8 40.7
17:30 1021 30.15 850 25.1 27.4 81.3 23 4.6 40.4
17:35 1021 30.15 850 25.1 26.9 80.4 24 5 41
17:40 1021 30.15 850 25.1 27.1 80.8 24 4.8 40.7
17:45 1021 30.15 850 25.1 28.1 82.7 22 5 40.9
17:50 1021 30.15 850 25.1 28.7 83.6 22 5.1 41.3
17:55 1021 30.15 850 25.1 28.3 83 22 5 41
18:00 1021 30.15 850 25.1 28.7 83.7 21 4.7 40.5
18:05 1021 30.15 850 25.1 28.3 83 22 4.7 40.4
18:10 1021 30.15 850 25.1 28.3 82.9 22 4.6 40.3
18:15 1021 30.15 850 25.1 28.4 83.2 21 4.6 40.2
18:20 1021 30.15 850 25.1 28.4 83.1 21 4.5 40.2
18:25 1021 30.15 850 25.1 27.7 81.8 23 4.8 40.7
18:30 1021 30.15 850 25.1 27.8 82 22 4.2 39.5
18:35 1021 30.15 850 25.1 28 82.4 22 4.4 40
18:40 1021 30.15 850 25.1 28.2 82.7 22 4.9 40.8
18:45 1021 30.15 850 25.1 27.8 82 22 4.2 39.6
18:50 1021 30.15 850 25.1 27 80.6 23 4.2 39.5
18:55 1021 30.15 850 25.1 26.7 80.1 23 4.4 39.9
19:00 1021 30.15 850 25.1 26.8 80.2 24 4.6 40.3
19:05 1021 30.15 850 25.1 26.6 79.9 23 3.9 39.1
19:10 1021 30.15 850 25.1 26.5 79.7 23 3.9 39
19:15 1021 30.15 850 25.1 26.4 79.5 23 3.7 38.7
19:20 1021 30.15 850 25.1 26.2 79.2 23 3.8 38.8
19:25 1021 30.15 850 25.1 26.1 79 23 3.4 38.2
19:30 1021 30.15 850 25.1 26 78.7 26 5 41
19:35 1021 30.15 850 25.1 25.7 78.3 29 6.4 43.6
19:40 1021 30.15 850 25.1 25.4 77.8 29 6.2 43.2
19:45 1021 30.15 850 25.1 25.3 77.5 29 6.3 43.4
19:50 1021 30.15 850 25.1 25.1 77.1 33 8.1 46.6
19:55 1021 30.15 850 25.1 24.7 76.4 34 7.9 46.3
20:00 1021 30.15 850 25.1 24.2 75.6 33 7.3 45.1
20:05 1021 30.15 850 25.1 24.1 75.3 36 8.1 46.6
20:10 1021 30.15 850 25.1 23.7 74.7 35 7.5 45.6
20:15 1021 30.15 850 25.1 23.3 74 36 7.7 45.9
20:20 1021 30.15 850 25.1 22.9 73.2 36 7.4 45.3
20:25 1021 30.15 850 25.1 22.5 72.6 37 7.3 45.2
20:30 1021 30.15 850 25.1 22.3 72.2 37 6.9 44.5
20:35 1021 30.15 850 25.1 22.1 71.8 35 6.2 43.1
20:40 1021 30.15 850 25.1 22.3 72.1 34 5.8 42.5
20:45 1021 30.15 851 25.13 22.3 72.1 34 5.8 42.5
20:50 1021 30.15 851 25.13 22 71.7 35 6 42.8
20:55 1021 30.15 851 25.13 21.8 71.2 35 5.8 42.4
21:00 1021 30.15 851 25.13 21.9 71.5 34 5.4 41.8
21:05 1022 30.18 851 25.13 22.1 71.8 33 5.4 41.8
21:10 1022 30.18 851 25.13 22.2 71.9 33 5.1 41.2
21:15 1022 30.18 851 25.13 22.2 72 33 5.2 41.4
21:20 1022 30.18 851 25.13 22.1 71.8 33 5.2 41.3
21:25 1022 30.18 851 25.13 21.9 71.5 33 5.3 41.6
21:30 1022 30.18 851 25.13 21.8 71.2 33 5 41
21:35 1022 30.18 851 25.13 21.8 71.2 33 5 40.9
21:40 1022 30.18 851 25.13 21.8 71.2 33 4.9 40.8
21:45 1022 30.18 851 25.13 21.8 71.3 33 4.9 40.8
21:50 1022 30.18 851 25.13 21.8 71.2 33 5 40.9
21:55 1022 30.18 851 25.13 21.7 71 33 5 41
22:00 1022 30.18 851 25.13 21.5 70.8 33 5 40.9
22:05 1022 30.18 851 25.13 21.4 70.4 34 4.9 40.9
22:10 1022 30.18 851 25.13 21.4 70.6 34 5.1 41.1
22:15 1022 30.18 851 25.13 21.4 70.5 34 5.1 41.3
22:20 1022 30.18 851 25.13 21.2 70.2 35 5.5 41.9
22:25 1022 30.18 851 25.13 21.1 69.9 35 5.4 41.7
22:30 1022 30.18 851 25.13 21 69.7 37 5.8 42.5
22:35 1022 30.18 851 25.13 20.7 69.2 38 5.9 42.6
22:40 1022 30.18 851 25.13 20.5 69 39 6.2 43.2
22:45 1022 30.18 851 25.13 20.4 68.7 40 6.4 43.5
22:50 1022 30.18 851 25.13 20.3 68.5 40 6.4 43.6
22:55 1022 30.18 851 25.13 20.2 68.3 40 6.4 43.6
23:00 1022 30.18 851 25.13 20.1 68.3 41 6.5 43.8
23:05 1022 30.18 851 25.13 20 67.9 41 6.6 43.9
23:10 1022 30.18 851 25.13 19.8 67.7 42 6.7 44.1
23:15 1022 30.18 851 25.13 19.7 67.4 42 6.7 44
23:20 1022 30.18 851 25.13 19.6 67.3 43 6.7 44.1
23:25 1022 30.18 851 25.13 19.5 67 43 6.6 43.9
23:30 1022 30.18 851 25.13 19.4 66.9 43 6.8 44.3
23:35 1022 30.18 851 25.13 19.3 66.8 44 6.8 44.3
23:40 1022 30.18 851 25.13 19.2 66.6 44 6.8 44.2
23:45 1022 30.18 851 25.13 19.2 66.5 44 6.9 44.4
23:50 1022 30.18 851 25.13 19.1 66.3 44 6.8 44.2
23:55 1022 30.18 851 25.13 19 66.2 45 6.8 44.3
24:00 1022 30.18 851 25.13 18.9 66.1 45 6.9 44.4